createdAt,value
2022-12-12T00:00:30.496Z,17.90
2022-12-12T00:02:57.559Z,20.00
2022-12-12T00:05:24.551Z,20.20
2022-12-12T00:07:50.943Z,19.70
2022-12-12T00:10:17.364Z,20.67
2022-12-12T00:12:43.663Z,18.52
2022-12-12T00:15:10.491Z,18.23
2022-12-12T00:17:36.996Z,19.67
2022-12-12T00:20:04.660Z,16.17
2022-12-12T00:22:30.956Z,18.38
2022-12-12T00:24:57.277Z,21.13
2022-12-12T00:27:23.802Z,22.67
2022-12-12T00:29:54.349Z,25.38
2022-12-12T00:32:21.357Z,20.70
2022-12-12T00:34:47.659Z,23.40
2022-12-12T00:37:14.114Z,23.30
2022-12-12T00:39:40.670Z,20.55
2022-12-12T00:42:07.260Z,18.98
2022-12-12T00:44:33.670Z,19.02
2022-12-12T00:47:00.020Z,21.60
2022-12-12T00:49:26.376Z,18.10
2022-12-12T00:51:52.677Z,16.70
2022-12-12T00:54:19.095Z,16.75
2022-12-12T00:56:45.460Z,19.02
2022-12-12T00:59:11.774Z,17.63
2022-12-12T01:01:38.137Z,19.35
2022-12-12T01:04:04.828Z,18.23
2022-12-12T01:06:31.556Z,16.70
2022-12-12T01:08:57.924Z,19.95
2022-12-12T01:11:24.368Z,17.95
2022-12-12T01:13:53.236Z,16.85
2022-12-12T01:16:19.822Z,17.00
2022-12-12T01:18:46.179Z,20.08
2022-12-12T01:21:14.607Z,19.80
2022-12-12T01:23:41.813Z,18.52
2022-12-12T01:26:11.346Z,18.73
2022-12-12T01:28:38.394Z,21.10
2022-12-12T01:31:05.899Z,21.30
2022-12-12T01:33:32.583Z,19.73
2022-12-12T01:35:59.113Z,21.98
2022-12-12T01:38:25.681Z,18.77
2022-12-12T01:40:52.707Z,22.35
2022-12-12T01:43:20.794Z,19.90
2022-12-12T01:45:59.509Z,21.40
2022-12-12T01:48:35.182Z,20.73
2022-12-12T01:51:06.424Z,19.65
2022-12-12T01:53:33.401Z,15.30
2022-12-12T01:56:02.344Z,20.25
2022-12-12T01:58:31.145Z,16.70
2022-12-12T02:00:57.506Z,20.33
2022-12-12T02:03:23.948Z,19.60
2022-12-12T02:05:56.624Z,19.98
2022-12-12T02:08:23.524Z,17.70
2022-12-12T02:10:51.052Z,18.50
2022-12-12T02:13:26.572Z,18.25
2022-12-12T02:16:11.428Z,23.75
2022-12-12T02:19:01.334Z,20.13
2022-12-12T02:21:39.834Z,23.25
2022-12-12T02:24:30.477Z,20.25
2022-12-12T02:27:18.626Z,21.08
2022-12-12T02:30:01.919Z,16.73
2022-12-12T02:32:49.771Z,18.48
2022-12-12T02:35:25.696Z,21.52
2022-12-12T02:38:06.548Z,18.80
2022-12-12T02:40:49.847Z,20.52
2022-12-12T02:43:31.891Z,21.17
2022-12-12T02:46:04.660Z,19.25
2022-12-12T02:48:58.151Z,18.33
2022-12-12T02:51:26.626Z,19.52
2022-12-12T02:53:53.037Z,21.88
2022-12-12T02:56:44.153Z,20.23
2022-12-12T02:59:38.377Z,20.15
2022-12-12T03:02:04.722Z,21.42
2022-12-12T03:05:12.411Z,21.92
2022-12-12T03:07:58.759Z,18.63
2022-12-12T03:10:57.632Z,20.52
2022-12-12T03:13:50.699Z,19.98
2022-12-12T03:16:30.456Z,20.77
2022-12-12T03:19:08.815Z,17.55
2022-12-12T03:21:44.890Z,20.48
2022-12-12T03:24:16.017Z,20.17
2022-12-12T03:26:54.370Z,18.45
2022-12-12T03:29:30.107Z,19.75
2022-12-12T03:32:03.494Z,20.35
2022-12-12T03:34:39.446Z,22.73
2022-12-12T03:37:18.856Z,22.85
2022-12-12T03:39:50.232Z,22.10
2022-12-12T03:42:37.693Z,18.90
2022-12-12T03:45:11.471Z,20.38
2022-12-12T03:48:25.650Z,22.73
2022-12-12T03:51:02.930Z,22.25
2022-12-12T03:53:47.781Z,24.60
2022-12-12T03:56:56.401Z,22.48
2022-12-12T03:59:33.128Z,20.40
2022-12-12T04:02:16.992Z,19.50
2022-12-12T04:04:52.517Z,24.15
2022-12-12T04:07:23.813Z,25.45
2022-12-12T04:10:09.551Z,22.55
2022-12-12T04:13:05.124Z,23.90
2022-12-12T04:15:40.571Z,26.55
2022-12-12T04:18:26.935Z,23.92
2022-12-12T04:21:30.023Z,21.83
2022-12-12T04:24:32.792Z,24.17
2022-12-12T04:27:04.641Z,23.65
2022-12-12T04:29:33.664Z,23.98
2022-12-12T04:32:22.411Z,21.50
2022-12-12T04:34:52.060Z,23.13
2022-12-12T04:37:23.945Z,24.15
2022-12-12T04:39:54.219Z,26.50
2022-12-12T04:42:24.217Z,20.40
2022-12-12T04:44:54.479Z,26.58
2022-12-12T04:47:22.974Z,22.67
2022-12-12T04:49:52.421Z,22.33
2022-12-12T04:52:21.619Z,21.30
2022-12-12T04:54:54.501Z,24.58
2022-12-12T04:57:25.861Z,21.48
2022-12-12T04:59:53.534Z,21.40
2022-12-12T05:02:52.198Z,22.85
2022-12-12T05:05:25.048Z,24.70
2022-12-12T05:08:12.449Z,21.92
2022-12-12T05:10:44.242Z,22.67
2022-12-12T05:13:19.723Z,20.88
2022-12-12T05:15:48.269Z,30.17
2022-12-12T05:18:14.754Z,22.08
2022-12-12T05:20:41.231Z,22.98
2022-12-12T05:23:07.928Z,22.15
2022-12-12T05:25:34.276Z,24.52
2022-12-12T05:28:00.633Z,24.65
2022-12-12T05:30:27.228Z,27.75
2022-12-12T05:32:54.328Z,24.92
2022-12-12T05:35:20.763Z,23.40
2022-12-12T05:37:51.698Z,22.25
2022-12-12T05:40:19.590Z,26.02
2022-12-12T05:42:45.980Z,23.15
2022-12-12T05:45:12.685Z,25.60
2022-12-12T05:47:39.282Z,23.83
2022-12-12T05:50:06.930Z,23.77
2022-12-12T05:52:33.586Z,24.17
2022-12-12T05:54:59.960Z,26.58
2022-12-12T05:57:26.268Z,21.75
2022-12-12T05:59:52.601Z,23.13
2022-12-12T06:02:19.234Z,23.90
2022-12-12T06:04:45.661Z,24.20
2022-12-12T06:07:11.999Z,24.75
2022-12-12T06:09:38.458Z,24.40
2022-12-12T06:12:05.082Z,28.83
2022-12-12T06:14:31.408Z,24.05
2022-12-12T06:16:57.690Z,21.40
2022-12-12T06:19:24.013Z,23.10
2022-12-12T06:21:50.354Z,25.00
2022-12-12T06:24:16.645Z,27.90
2022-12-12T06:26:42.967Z,25.08
2022-12-12T06:29:09.255Z,33.78
2022-12-12T06:31:35.609Z,25.35
2022-12-12T06:34:02.070Z,27.35
2022-12-12T06:36:28.397Z,28.17
2022-12-12T06:38:58.572Z,23.85
2022-12-12T06:41:26.510Z,28.23
2022-12-12T06:43:53.078Z,27.08
2022-12-12T06:46:25.941Z,33.78
2022-12-12T06:48:53.954Z,24.63
2022-12-12T06:51:23.473Z,24.23
2022-12-12T06:53:50.192Z,30.10
2022-12-12T06:56:19.105Z,30.65
2022-12-12T06:58:45.424Z,28.73
2022-12-12T07:01:13.755Z,29.27
2022-12-12T07:03:41.016Z,30.20
2022-12-12T07:06:07.724Z,25.30
2022-12-12T07:08:35.279Z,31.60
2022-12-12T07:11:06.449Z,26.95
2022-12-12T07:13:32.913Z,29.15
2022-12-12T07:15:59.286Z,27.38
2022-12-12T07:18:25.754Z,29.63
2022-12-12T07:20:52.194Z,29.30
2022-12-12T07:23:18.509Z,33.97
2022-12-12T07:25:45.163Z,35.00
2022-12-12T07:28:13.475Z,32.83
2022-12-12T07:30:45.430Z,31.52
2022-12-12T07:33:13.379Z,35.75
2022-12-12T07:35:39.907Z,33.50
2022-12-12T07:38:06.226Z,33.55
2022-12-12T07:40:33.436Z,31.63
2022-12-12T07:43:00.111Z,32.28
2022-12-12T07:45:26.569Z,32.03
2022-12-12T07:47:53.288Z,27.73
2022-12-12T07:50:20.338Z,35.83
2022-12-12T07:52:46.660Z,32.95
2022-12-12T07:55:13.244Z,27.88
2022-12-12T07:57:41.200Z,30.45
2022-12-12T08:00:10.109Z,30.52
2022-12-12T08:02:36.424Z,29.65
2022-12-12T08:05:02.754Z,31.63
2022-12-12T08:07:29.130Z,32.70
2022-12-12T08:09:55.446Z,33.25
2022-12-12T08:12:22.105Z,33.75
2022-12-12T08:14:48.908Z,35.72
2022-12-12T08:17:15.205Z,34.50
2022-12-12T08:19:41.559Z,30.95
2022-12-12T08:22:08.423Z,33.65
2022-12-12T08:24:34.732Z,27.40
2022-12-12T08:27:01.097Z,36.67
2022-12-12T08:29:28.030Z,34.63
2022-12-12T08:31:54.350Z,31.67
2022-12-12T08:34:20.731Z,35.13
2022-12-12T08:36:47.404Z,29.33
2022-12-12T08:39:16.052Z,32.20
2022-12-12T08:41:44.754Z,36.67
2022-12-12T08:44:12.483Z,58.90
2022-12-12T08:46:39.039Z,43.03
2022-12-12T08:49:05.822Z,35.85
2022-12-12T08:51:32.242Z,41.58
2022-12-12T08:53:58.588Z,31.20
2022-12-12T08:56:24.959Z,31.33
2022-12-12T08:58:52.058Z,37.05
2022-12-12T09:01:22.383Z,34.55
2022-12-12T09:03:49.353Z,33.30
2022-12-12T09:06:16.543Z,27.73
2022-12-12T09:08:43.445Z,34.80
2022-12-12T09:11:10.688Z,36.72
2022-12-12T09:13:38.036Z,34.72
2022-12-12T09:16:05.883Z,33.97
2022-12-12T09:18:32.401Z,36.00
2022-12-12T09:20:59.341Z,32.33
2022-12-12T09:23:26.937Z,31.73
2022-12-12T09:25:54.251Z,32.35
2022-12-12T09:28:22.542Z,26.52
2022-12-12T09:30:49.625Z,16.20
2022-12-12T09:33:17.487Z,21.25
2022-12-12T09:35:44.060Z,26.40
2022-12-12T09:38:14.321Z,27.70
2022-12-12T09:43:29.899Z,25.20
2022-12-12T09:45:56.887Z,23.75
2022-12-12T09:48:41.874Z,28.85
2022-12-12T09:51:10.135Z,26.95
2022-12-12T09:53:38.106Z,21.05
2022-12-12T09:56:16.298Z,28.02
2022-12-12T09:58:52.478Z,23.60
2022-12-12T10:01:31.186Z,27.17
2022-12-12T10:04:20.138Z,26.55
2022-12-12T10:06:52.874Z,23.27
2022-12-12T10:10:01.713Z,25.80
2022-12-12T10:12:29.326Z,23.10
2022-12-12T10:15:02.386Z,26.20
2022-12-12T10:17:37.279Z,22.65
2022-12-12T10:20:17.059Z,20.70
2022-12-12T10:22:56.103Z,24.02
2022-12-12T10:25:44.697Z,20.38
2022-12-12T10:28:16.693Z,21.08
2022-12-12T10:31:28.626Z,21.20
2022-12-12T10:34:13.677Z,19.50
2022-12-12T10:36:58.888Z,22.33
2022-12-12T10:39:44.405Z,19.58
2022-12-12T10:42:47.643Z,19.67
2022-12-12T10:45:35.153Z,15.52
2022-12-12T10:48:01.642Z,18.98
2022-12-12T10:50:35.047Z,8.63
2022-12-12T10:53:07.418Z,20.48
2022-12-12T10:55:45.954Z,24.92
2022-12-12T10:58:13.318Z,21.35
2022-12-12T11:00:41.714Z,22.17
2022-12-12T11:03:32.441Z,18.00
2022-12-12T11:06:04.653Z,23.50
2022-12-12T11:08:33.523Z,19.52
2022-12-12T11:11:19.712Z,12.90
2022-12-12T11:13:57.813Z,16.85
2022-12-12T11:16:42.751Z,21.08
2022-12-12T11:19:24.066Z,18.60
2022-12-12T11:21:51.561Z,14.25
2022-12-12T11:24:21.220Z,10.27
2022-12-12T11:26:56.117Z,16.05
2022-12-12T11:29:39.844Z,19.27
2022-12-12T11:32:14.823Z,14.27
2022-12-12T11:34:45.509Z,20.65
2022-12-12T11:37:20.819Z,17.98
2022-12-12T11:39:51.712Z,18.58
2022-12-12T11:44:58.492Z,16.20
2022-12-12T11:47:35.783Z,19.90
2022-12-12T11:50:07.661Z,17.20
2022-12-12T11:52:37.818Z,23.98
2022-12-12T11:55:13.324Z,22.80
2022-12-12T11:58:06.609Z,24.52
2022-12-12T12:00:45.038Z,22.65
2022-12-12T12:03:20.473Z,19.35
2022-12-12T12:05:58.400Z,24.85
2022-12-12T12:09:01.769Z,23.65
2022-12-12T12:11:35.764Z,22.33
2022-12-12T12:14:14.664Z,20.77
2022-12-12T12:16:54.553Z,20.50
2022-12-12T12:19:39.078Z,21.35
2022-12-12T12:22:20.599Z,26.02
2022-12-12T12:25:08.819Z,19.67
2022-12-12T12:27:56.421Z,23.33
2022-12-12T12:30:25.506Z,22.58
2022-12-12T12:33:13.422Z,21.73
2022-12-12T12:36:10.817Z,16.38
2022-12-12T12:38:56.698Z,20.38
2022-12-12T12:41:41.108Z,22.25
2022-12-12T12:44:22.880Z,19.92
2022-12-12T12:46:53.019Z,21.15
2022-12-12T12:49:34.793Z,26.27
2022-12-12T12:52:12.941Z,20.13
2022-12-12T12:54:41.890Z,22.30
2022-12-12T12:57:13.845Z,18.48
2022-12-12T12:59:45.334Z,16.67
2022-12-12T13:02:30.564Z,16.65
2022-12-12T13:05:12.392Z,19.27
2022-12-12T13:08:04.130Z,15.23
2022-12-12T13:10:32.676Z,12.70
2022-12-12T13:13:01.600Z,20.13
2022-12-12T13:15:36.485Z,16.85
2022-12-12T13:18:11.605Z,18.33
2022-12-12T13:21:02.264Z,14.23
2022-12-12T13:23:52.920Z,16.48
2022-12-12T13:26:24.267Z,19.75
2022-12-12T13:29:09.443Z,14.73
2022-12-12T13:32:16.969Z,16.98
2022-12-12T13:34:53.552Z,18.37
2022-12-12T13:37:22.375Z,14.38
2022-12-12T13:40:07.182Z,12.52
2022-12-12T13:43:09.733Z,13.77
2022-12-12T13:45:39.057Z,15.48
2022-12-12T13:48:10.677Z,15.07
2022-12-12T13:50:37.014Z,15.32
2022-12-12T13:53:06.102Z,16.88
2022-12-12T13:55:36.599Z,19.25
2022-12-12T13:58:17.922Z,14.85
2022-12-12T14:00:44.821Z,15.07
2022-12-12T14:03:11.181Z,17.50
2022-12-12T14:05:43.244Z,16.40
2022-12-12T14:08:12.358Z,16.40
2022-12-12T14:10:45.061Z,17.15
2022-12-12T14:13:17.433Z,19.48
2022-12-12T14:15:45.832Z,18.45
2022-12-12T14:18:29.787Z,18.50
2022-12-12T14:21:22.519Z,21.48
2022-12-12T14:23:51.063Z,21.15
2022-12-12T14:26:29.309Z,15.43
2022-12-12T14:29:17.661Z,17.63
2022-12-12T14:31:56.303Z,17.70
2022-12-12T14:34:42.378Z,16.55
2022-12-12T14:37:39.821Z,15.52
2022-12-12T14:40:22.557Z,18.15
2022-12-12T14:43:20.864Z,16.77
2022-12-12T14:45:56.346Z,14.90
2022-12-12T14:48:31.424Z,19.13
2022-12-12T14:51:01.052Z,17.45
2022-12-12T14:53:36.379Z,17.67
2022-12-12T14:56:22.979Z,20.58
2022-12-12T14:59:00.502Z,17.00
2022-12-12T15:01:32.936Z,17.98
2022-12-12T15:04:01.909Z,19.27
2022-12-12T15:06:36.824Z,21.08
2022-12-12T15:09:10.871Z,16.95
2022-12-12T15:11:37.669Z,18.63
2022-12-12T15:14:04.102Z,15.35
2022-12-12T15:16:39.198Z,17.98
2022-12-12T15:19:19.132Z,22.27
2022-12-12T15:21:46.795Z,18.27
2022-12-12T15:24:20.166Z,20.42
2022-12-12T15:26:47.468Z,21.40
2022-12-12T15:29:36.423Z,20.67
2022-12-12T15:32:09.010Z,21.13
2022-12-12T15:34:37.893Z,24.05
2022-12-12T15:37:25.296Z,16.38
2022-12-12T15:40:07.040Z,24.00
2022-12-12T15:42:33.687Z,17.48
2022-12-12T15:45:00.891Z,23.02
2022-12-12T15:47:27.233Z,21.25
2022-12-12T15:49:53.724Z,22.33
2022-12-12T15:52:22.393Z,17.75
2022-12-12T15:54:51.333Z,18.67
2022-12-12T15:57:21.009Z,17.33
2022-12-12T15:59:55.178Z,19.00
2022-12-12T16:02:38.172Z,21.40
2022-12-12T16:05:24.944Z,20.60
2022-12-12T16:07:51.293Z,19.27
2022-12-12T16:10:17.533Z,22.77
2022-12-12T16:13:21.493Z,24.77
2022-12-12T16:15:47.865Z,26.80
2022-12-12T16:18:14.105Z,24.85
2022-12-12T16:20:55.707Z,21.52
2022-12-12T16:23:39.577Z,19.63
2022-12-12T16:26:08.948Z,18.52
2022-12-12T16:28:35.407Z,18.13
2022-12-12T16:31:05.702Z,16.30
2022-12-12T16:33:34.937Z,24.65
2022-12-12T16:36:05.002Z,26.98
2022-12-12T16:38:32.004Z,34.93
2022-12-12T16:41:01.376Z,29.75
2022-12-12T16:43:27.878Z,53.92
2022-12-12T16:45:56.113Z,34.75
2022-12-12T16:48:31.100Z,25.30
2022-12-12T16:51:01.343Z,29.67
2022-12-12T16:53:27.689Z,30.88
2022-12-12T16:55:54.588Z,108.03
2022-12-12T16:58:21.502Z,110.75
2022-12-12T17:00:48.935Z,48.63
2022-12-12T17:03:16.956Z,24.77
2022-12-12T17:05:45.648Z,26.92
2022-12-12T17:08:12.878Z,27.77
2022-12-12T17:10:39.283Z,28.58
2022-12-12T17:13:07.263Z,30.85
2022-12-12T17:15:34.151Z,35.30
2022-12-12T17:18:01.352Z,28.30
2022-12-12T17:20:37.689Z,26.58
2022-12-12T17:23:30.005Z,24.73
2022-12-12T17:26:03.008Z,35.35
2022-12-12T17:28:31.620Z,52.22
2022-12-12T17:30:57.992Z,51.45
2022-12-12T17:33:24.405Z,44.42
2022-12-12T17:35:58.769Z,39.33
2022-12-12T17:38:25.115Z,28.50
2022-12-12T17:40:53.776Z,33.58
2022-12-12T17:43:20.151Z,31.98
2022-12-12T17:45:46.524Z,33.00
2022-12-12T17:48:12.855Z,30.08
2022-12-12T17:50:41.782Z,29.45
2022-12-12T17:53:08.367Z,28.42
2022-12-12T17:55:52.336Z,30.05
2022-12-12T17:58:23.882Z,29.88
2022-12-12T18:00:54.493Z,31.25
2022-12-12T18:03:20.855Z,29.95
2022-12-12T18:05:47.491Z,28.67
2022-12-12T18:08:13.841Z,30.13
2022-12-12T18:10:40.190Z,33.55
2022-12-12T18:13:06.550Z,28.80
2022-12-12T18:15:32.884Z,29.40
2022-12-12T18:17:59.262Z,28.27
2022-12-12T18:20:31.015Z,26.25
2022-12-12T18:22:57.703Z,25.48
2022-12-12T18:25:25.165Z,25.55
2022-12-12T18:27:51.637Z,23.15
2022-12-12T18:30:18.088Z,23.52
2022-12-12T18:32:46.110Z,25.67
2022-12-12T18:35:12.467Z,19.30
2022-12-12T18:37:38.862Z,24.65
2022-12-12T18:40:06.940Z,26.50
2022-12-12T18:42:33.262Z,23.95
2022-12-12T18:44:59.647Z,24.90
2022-12-12T18:47:25.996Z,32.42
2022-12-12T18:49:52.341Z,30.15
2022-12-12T18:52:18.720Z,31.65
2022-12-12T18:54:45.013Z,36.58
2022-12-12T18:57:11.313Z,39.33
2022-12-12T18:59:37.664Z,32.20
2022-12-12T19:02:03.999Z,29.83
2022-12-12T19:04:30.482Z,27.63
2022-12-12T19:06:56.797Z,30.10
2022-12-12T19:09:23.105Z,30.15
2022-12-12T19:11:50.150Z,30.15
2022-12-12T19:14:16.660Z,28.55
2022-12-12T19:16:43.980Z,28.33
2022-12-12T19:19:11.011Z,25.60
2022-12-12T19:21:38.316Z,23.23
2022-12-12T19:24:08.898Z,24.88
2022-12-12T19:26:36.993Z,24.15
2022-12-12T19:29:06.616Z,26.20
2022-12-12T19:31:34.478Z,24.45
2022-12-12T19:34:01.735Z,21.25
2022-12-12T19:36:30.127Z,26.33
2022-12-12T19:38:59.165Z,28.27
2022-12-12T19:41:26.262Z,26.17
2022-12-12T19:43:53.501Z,37.78
2022-12-12T19:46:22.587Z,47.28
2022-12-12T19:48:52.845Z,37.38
2022-12-12T19:51:21.150Z,38.05
2022-12-12T19:53:53.353Z,35.65
2022-12-12T19:56:22.885Z,32.30
2022-12-12T19:58:50.209Z,36.63
2022-12-12T20:01:22.196Z,39.83
2022-12-12T20:03:53.135Z,35.38
2022-12-12T20:08:46.767Z,41.35
2022-12-12T20:11:16.825Z,36.92
2022-12-12T20:13:48.420Z,37.43
2022-12-12T20:16:17.610Z,32.65
2022-12-12T20:18:47.049Z,39.63
2022-12-12T20:21:29.982Z,44.85
2022-12-12T20:23:59.751Z,39.05
2022-12-12T20:26:28.370Z,40.88
2022-12-12T20:28:57.556Z,42.65
2022-12-12T20:31:25.762Z,36.05
2022-12-12T20:33:55.117Z,40.17
2022-12-12T20:36:24.416Z,39.03
2022-12-12T20:38:51.597Z,37.30
2022-12-12T20:41:20.476Z,42.15
2022-12-12T20:43:47.558Z,37.25
2022-12-12T20:46:17.299Z,39.15
2022-12-12T20:48:44.522Z,31.98
2022-12-12T20:51:45.606Z,26.98
2022-12-12T20:54:01.741Z,31.58
2022-12-12T20:56:29.036Z,35.53
2022-12-12T20:58:57.876Z,35.53
2022-12-12T21:01:26.680Z,35.30
2022-12-12T21:03:53.213Z,26.73
2022-12-12T21:06:22.294Z,28.38
2022-12-12T21:08:49.886Z,30.15
2022-12-12T21:11:18.796Z,31.13
2022-12-12T21:13:45.713Z,28.48
2022-12-12T21:16:22.291Z,28.13
2022-12-12T21:18:50.369Z,27.80
2022-12-12T21:21:16.677Z,37.03
2022-12-12T21:23:43.106Z,31.67
2022-12-12T21:26:19.018Z,29.30
2022-12-12T21:28:46.566Z,32.33
2022-12-12T21:31:19.706Z,28.42
2022-12-12T21:33:46.775Z,27.27
2022-12-12T21:36:15.645Z,31.60
2022-12-12T21:38:42.307Z,29.20
2022-12-12T21:41:14.817Z,26.58
2022-12-12T21:43:41.408Z,36.47
2022-12-12T21:46:11.977Z,30.92
2022-12-12T21:48:38.728Z,27.52
2022-12-12T21:51:07.597Z,27.85
2022-12-12T21:53:35.229Z,29.88
2022-12-12T21:56:17.319Z,26.67
2022-12-12T21:58:46.121Z,29.15
2022-12-12T22:01:19.825Z,31.73
2022-12-12T22:03:48.332Z,27.00
2022-12-12T22:06:20.778Z,31.02
2022-12-12T22:08:48.123Z,34.22
2022-12-12T22:11:40.119Z,30.00
2022-12-12T22:14:03.965Z,32.60
2022-12-12T22:16:33.500Z,26.45
2022-12-12T22:19:06.320Z,33.97
2022-12-12T22:21:33.480Z,33.70
2022-12-12T22:24:00.202Z,29.77
2022-12-12T22:26:27.726Z,29.77
2022-12-12T22:28:57.516Z,27.52
2022-12-12T22:31:26.817Z,34.13
2022-12-12T22:34:01.575Z,35.17
2022-12-12T22:36:30.627Z,30.73
2022-12-12T22:38:58.498Z,25.95
2022-12-12T22:41:26.693Z,27.30
2022-12-12T22:43:54.869Z,28.67
2022-12-12T22:46:21.972Z,30.35
2022-12-12T22:48:48.761Z,32.70
2022-12-12T22:51:21.401Z,28.48
2022-12-12T22:53:47.970Z,33.03
2022-12-12T22:56:15.097Z,32.15
2022-12-12T22:58:42.041Z,38.45
2022-12-12T23:01:20.421Z,29.17
2022-12-12T23:03:47.305Z,35.05
2022-12-12T23:06:16.785Z,31.52
2022-12-12T23:08:48.465Z,25.83
2022-12-12T23:11:15.997Z,33.72
2022-12-12T23:13:44.195Z,34.92
2022-12-12T23:16:16.584Z,32.67
2022-12-12T23:18:44.326Z,34.60
2022-12-12T23:21:16.683Z,33.95
2022-12-12T23:23:44.692Z,30.58
2022-12-12T23:26:14.348Z,33.28
2022-12-12T23:28:42.016Z,32.20
2022-12-12T23:31:13.897Z,33.83
2022-12-12T23:33:40.458Z,35.65
2022-12-12T23:36:11.657Z,34.08
2022-12-12T23:38:38.835Z,32.95
2022-12-12T23:41:07.469Z,29.45
2022-12-12T23:43:34.119Z,30.38
2022-12-12T23:46:02.402Z,29.40
2022-12-12T23:48:29.195Z,28.58
2022-12-12T23:50:55.635Z,35.42
2022-12-12T23:53:21.984Z,31.15
2022-12-12T23:55:49.223Z,30.13
2022-12-12T23:58:15.757Z,34.72
